sensor_id;sensor_type;location;lat;lon;timestamp;pressure;altitude;pressure_sealevel;temperature;humidity
8318;BME280;4196;48.926;8.964;2023-06-10T00:00:46;98625.91;;;14.04;100.00
8318;BME280;4196;48.926;8.964;2023-06-10T00:03:32;98617.25;;;14.02;100.00
8318;BME280;4196;48.926;8.964;2023-06-10T00:06:19;98645.63;;;14.14;100.00
8318;BME280;4196;48.926;8.964;2023-06-10T00:09:07;98647.53;;;14.06;100.00
8318;BME280;4196;48.926;8.964;2023-06-10T00:11:57;98644.13;;;14.04;100.00
8318;BME280;4196;48.926;8.964;2023-06-10T00:14:46;98580.03;;;13.61;100.00
8318;BME280;4196;48.926;8.964;2023-06-10T00:17:32;98658.91;;;14.02;100.00
8318;BME280;4196;48.926;8.964;2023-06-10T00:20:19;98639.47;;;13.80;100.00
8318;BME280;4196;48.926;8.964;2023-06-10T00:23:07;98650.53;;;13.88;100.00
8318;BME280;4196;48.926;8.964;2023-06-10T00:25:54;98660.03;;;13.90;100.00
8318;BME280;4196;48.926;8.964;2023-06-10T00:28:40;98624.25;;;13.63;100.00
8318;BME280;4196;48.926;8.964;2023-06-10T00:31:27;98654.41;;;13.71;100.00
8318;BME280;4196;48.926;8.964;2023-06-10T00:34:13;98657.00;;;13.71;100.00
8318;BME280;4196;48.926;8.964;2023-06-10T00:37:00;98620.34;;;13.42;100.00
8318;BME280;4196;48.926;8.964;2023-06-10T00:39:47;98635.03;;;13.44;100.00
8318;BME280;4196;48.926;8.964;2023-06-10T00:42:33;98608.47;;;13.28;100.00
8318;BME280;4196;48.926;8.964;2023-06-10T00:45:20;98634.31;;;13.38;100.00
8318;BME280;4196;48.926;8.964;2023-06-10T00:48:06;98630.88;;;13.36;100.00
8318;BME280;4196;48.926;8.964;2023-06-10T00:50:54;98639.44;;;13.41;100.00
8318;BME280;4196;48.926;8.964;2023-06-10T00:53:41;98653.94;;;13.51;100.00
8318;BME280;4196;48.926;8.964;2023-06-10T00:56:27;98659.16;;;13.51;100.00
8318;BME280;4196;48.926;8.964;2023-06-10T00:59:15;98663.53;;;13.49;100.00
8318;BME280;4196;48.926;8.964;2023-06-10T01:02:03;98657.66;;;13.41;100.00
8318;BME280;4196;48.926;8.964;2023-06-10T01:04:50;98651.66;;;13.36;100.00
8318;BME280;4196;48.926;8.964;2023-06-10T01:07:48;98657.06;;;13.26;100.00
8318;BME280;4196;48.926;8.964;2023-06-10T01:10:55;98667.44;;;13.28;100.00
8318;BME280;4196;48.926;8.964;2023-06-10T01:13:45;98667.53;;;13.23;100.00
8318;BME280;4196;48.926;8.964;2023-06-10T01:16:33;98653.84;;;13.12;100.00
8318;BME280;4196;48.926;8.964;2023-06-10T01:19:22;98645.28;;;13.07;100.00
8318;BME280;4196;48.926;8.964;2023-06-10T01:22:10;98650.59;;;13.01;100.00
8318;BME280;4196;48.926;8.964;2023-06-10T01:24:57;98651.44;;;13.01;100.00
8318;BME280;4196;48.926;8.964;2023-06-10T01:27:48;98656.66;;;13.01;100.00
8318;BME280;4196;48.926;8.964;2023-06-10T01:33:43;98664.69;;;12.88;100.00
8318;BME280;4196;48.926;8.964;2023-06-10T01:36:31;98657.94;;;12.77;100.00
8318;BME280;4196;48.926;8.964;2023-06-10T01:39:22;98668.41;;;12.74;100.00
8318;BME280;4196;48.926;8.964;2023-06-10T01:42:11;98641.06;;;12.53;100.00
8318;BME280;4196;48.926;8.964;2023-06-10T01:44:58;98620.56;;;12.37;100.00
8318;BME280;4196;48.926;8.964;2023-06-10T01:47:44;98667.88;;;12.54;100.00
8318;BME280;4196;48.926;8.964;2023-06-10T01:50:31;98646.56;;;12.35;100.00
8318;BME280;4196;48.926;8.964;2023-06-10T01:53:17;98651.72;;;12.38;100.00
8318;BME280;4196;48.926;8.964;2023-06-10T01:56:05;98666.22;;;12.50;100.00
8318;BME280;4196;48.926;8.964;2023-06-10T01:58:51;98666.28;;;12.48;100.00
8318;BME280;4196;48.926;8.964;2023-06-10T02:01:41;98659.47;;;12.40;100.00
8318;BME280;4196;48.926;8.964;2023-06-10T02:04:29;98662.91;;;12.42;100.00
8318;BME280;4196;48.926;8.964;2023-06-10T02:07:16;98662.19;;;12.33;100.00
8318;BME280;4196;48.926;8.964;2023-06-10T02:10:04;98677.66;;;12.40;100.00
8318;BME280;4196;48.926;8.964;2023-06-10T02:12:51;98662.09;;;12.37;100.00
8318;BME280;4196;48.926;8.964;2023-06-10T02:15:37;98633.16;;;12.08;100.00
8318;BME280;4196;48.926;8.964;2023-06-10T02:18:24;98650.41;;;12.11;100.00
8318;BME280;4196;48.926;8.964;2023-06-10T02:21:11;98671.06;;;12.19;100.00
8318;BME280;4196;48.926;8.964;2023-06-10T02:23:57;98680.56;;;12.20;100.00
8318;BME280;4196;48.926;8.964;2023-06-10T02:26:44;98673.75;;;12.13;100.00
8318;BME280;4196;48.926;8.964;2023-06-10T02:29:33;98641.22;;;11.90;100.00
8318;BME280;4196;48.926;8.964;2023-06-10T02:32:20;98671.28;;;12.05;100.00
8318;BME280;4196;48.926;8.964;2023-06-10T02:35:06;98667.88;;;12.00;100.00
8318;BME280;4196;48.926;8.964;2023-06-10T02:37:53;98654.91;;;12.00;100.00
8318;BME280;4196;48.926;8.964;2023-06-10T02:40:40;98661.88;;;11.96;100.00
8318;BME280;4196;48.926;8.964;2023-06-10T02:43:26;98686.84;;;12.05;100.00
8318;BME280;4196;48.926;8.964;2023-06-10T02:46:13;98682.69;;;11.93;100.00
8318;BME280;4196;48.926;8.964;2023-06-10T02:49:00;98657.72;;;11.81;100.00
8318;BME280;4196;48.926;8.964;2023-06-10T02:51:48;98671.63;;;11.77;100.00
8318;BME280;4196;48.926;8.964;2023-06-10T02:54:34;98694.03;;;11.84;100.00
8318;BME280;4196;48.926;8.964;2023-06-10T02:57:22;98676.81;;;11.77;100.00
8318;BME280;4196;48.926;8.964;2023-06-10T03:00:08;98682.13;;;11.68;100.00
8318;BME280;4196;48.926;8.964;2023-06-10T03:02:58;98694.97;;;11.79;100.00
8318;BME280;4196;48.926;8.964;2023-06-10T03:05:53;98658.16;;;11.51;100.00
8318;BME280;4196;48.926;8.964;2023-06-10T03:08:41;98684.78;;;11.62;100.00
8318;BME280;4196;48.926;8.964;2023-06-10T03:11:33;98691.59;;;11.71;100.00
8318;BME280;4196;48.926;8.964;2023-06-10T03:14:19;98691.63;;;11.69;100.00
8318;BME280;4196;48.926;8.964;2023-06-10T03:17:06;98676.97;;;11.65;100.00
8318;BME280;4196;48.926;8.964;2023-06-10T03:19:55;98702.66;;;11.87;100.00
8318;BME280;4196;48.926;8.964;2023-06-10T03:22:42;98695.09;;;11.68;100.00
8318;BME280;4196;48.926;8.964;2023-06-10T03:25:29;98703.66;;;11.75;100.00
8318;BME280;4196;48.926;8.964;2023-06-10T03:28:16;98696.78;;;11.71;100.00
8318;BME280;4196;48.926;8.964;2023-06-10T03:31:03;98685.69;;;11.61;100.00
8318;BME280;4196;48.926;8.964;2023-06-10T03:33:51;98652.41;;;11.27;100.00
8318;BME280;4196;48.926;8.964;2023-06-10T03:36:38;98712.31;;;11.75;100.00
8318;BME280;4196;48.926;8.964;2023-06-10T03:39:25;98718.41;;;11.71;100.00
8318;BME280;4196;48.926;8.964;2023-06-10T03:42:16;98713.31;;;11.62;100.00
8318;BME280;4196;48.926;8.964;2023-06-10T03:45:03;98696.94;;;11.60;100.00
8318;BME280;4196;48.926;8.964;2023-06-10T03:47:53;98731.25;;;11.82;100.00
8318;BME280;4196;48.926;8.964;2023-06-10T03:50:44;98713.94;;;11.81;100.00
8318;BME280;4196;48.926;8.964;2023-06-10T03:53:30;98689.94;;;11.65;100.00
8318;BME280;4196;48.926;8.964;2023-06-10T03:56:17;98729.31;;;11.98;100.00
8318;BME280;4196;48.926;8.964;2023-06-10T03:59:03;98701.81;;;11.83;100.00
8318;BME280;4196;48.926;8.964;2023-06-10T04:01:52;98717.06;;;12.07;100.00
8318;BME280;4196;48.926;8.964;2023-06-10T04:04:39;98736.66;;;12.28;100.00
8318;BME280;4196;48.926;8.964;2023-06-10T04:07:26;98713.66;;;12.05;100.00
8318;BME280;4196;48.926;8.964;2023-06-10T04:10:16;98730.00;;;12.12;100.00
8318;BME280;4196;48.926;8.964;2023-06-10T04:13:02;98669.75;;;11.89;100.00
8318;BME280;4196;48.926;8.964;2023-06-10T04:15:55;98677.28;;;12.08;100.00
8318;BME280;4196;48.926;8.964;2023-06-10T04:18:42;98701.28;;;12.23;100.00
8318;BME280;4196;48.926;8.964;2023-06-10T04:21:29;98701.94;;;12.36;100.00
8318;BME280;4196;48.926;8.964;2023-06-10T04:24:16;98737.94;;;12.60;100.00
8318;BME280;4196;48.926;8.964;2023-06-10T04:27:04;98725.72;;;12.65;100.00
8318;BME280;4196;48.926;8.964;2023-06-10T04:29:51;98729.84;;;12.77;100.00
8318;BME280;4196;48.926;8.964;2023-06-10T04:32:39;98714.41;;;12.68;100.00
8318;BME280;4196;48.926;8.964;2023-06-10T04:35:30;98716.72;;;12.86;100.00
8318;BME280;4196;48.926;8.964;2023-06-10T04:38:19;98747.13;;;13.31;100.00
8318;BME280;4196;48.926;8.964;2023-06-10T04:41:05;98735.69;;;13.83;100.00
8318;BME280;4196;48.926;8.964;2023-06-10T04:43:53;98735.91;;;14.87;100.00
8318;BME280;4196;48.926;8.964;2023-06-10T04:46:40;98732.66;;;15.77;100.00
8318;BME280;4196;48.926;8.964;2023-06-10T04:49:27;98747.16;;;16.16;100.00
8318;BME280;4196;48.926;8.964;2023-06-10T04:52:15;98682.16;;;15.78;99.64
8318;BME280;4196;48.926;8.964;2023-06-10T04:55:05;98697.22;;;15.68;99.13
8318;BME280;4196;48.926;8.964;2023-06-10T04:57:51;98725.69;;;15.77;99.69
8318;BME280;4196;48.926;8.964;2023-06-10T05:00:38;98705.94;;;15.98;99.93
8318;BME280;4196;48.926;8.964;2023-06-10T05:03:25;98732.88;;;17.08;92.23
8318;BME280;4196;48.926;8.964;2023-06-10T05:06:11;98731.41;;;18.65;82.18
8318;BME280;4196;48.926;8.964;2023-06-10T05:08:57;98757.19;;;20.17;73.83
8318;BME280;4196;48.926;8.964;2023-06-10T05:11:44;98743.13;;;21.44;66.63
8318;BME280;4196;48.926;8.964;2023-06-10T05:14:31;98754.69;;;22.56;60.92
8318;BME280;4196;48.926;8.964;2023-06-10T05:17:17;98740.97;;;23.11;56.01
8318;BME280;4196;48.926;8.964;2023-06-10T05:20:04;98761.31;;;24.53;50.90
8318;BME280;4196;48.926;8.964;2023-06-10T05:22:50;98741.66;;;24.97;49.13
8318;BME280;4196;48.926;8.964;2023-06-10T05:25:37;98757.75;;;25.47;48.76
8318;BME280;4196;48.926;8.964;2023-06-10T05:28:23;98749.47;;;25.51;48.45
8318;BME280;4196;48.926;8.964;2023-06-10T05:31:10;98741.00;;;25.85;47.08
8318;BME280;4196;48.926;8.964;2023-06-10T05:33:57;98732.09;;;25.73;47.31
8318;BME280;4196;48.926;8.964;2023-06-10T05:36:43;98727.31;;;25.65;47.31
8318;BME280;4196;48.926;8.964;2023-06-10T05:39:30;98752.47;;;25.98;47.19
8318;BME280;4196;48.926;8.964;2023-06-10T05:42:16;98757.38;;;25.78;47.05
8318;BME280;4196;48.926;8.964;2023-06-10T05:45:03;98746.09;;;26.74;44.13
8318;BME280;4196;48.926;8.964;2023-06-10T05:47:50;98747.50;;;26.91;44.18
8318;BME280;4196;48.926;8.964;2023-06-10T05:50:37;98762.13;;;26.72;45.03
8318;BME280;4196;48.926;8.964;2023-06-10T05:53:26;98758.66;;;26.48;47.09
8318;BME280;4196;48.926;8.964;2023-06-10T05:56:14;98741.88;;;25.85;47.83
8318;BME280;4196;48.926;8.964;2023-06-10T05:59:00;98765.31;;;26.04;46.46
8318;BME280;4196;48.926;8.964;2023-06-10T06:01:47;98767.03;;;25.80;45.76
8318;BME280;4196;48.926;8.964;2023-06-10T06:04:34;98735.38;;;24.86;49.37
8318;BME280;4196;48.926;8.964;2023-06-10T06:07:20;98753.41;;;24.10;51.20
8318;BME280;4196;48.926;8.964;2023-06-10T06:10:07;98745.28;;;23.42;53.32
8318;BME280;4196;48.926;8.964;2023-06-10T06:12:53;98727.78;;;22.65;57.21
8318;BME280;4196;48.926;8.964;2023-06-10T06:15:40;98772.91;;;22.45;58.72
8318;BME280;4196;48.926;8.964;2023-06-10T06:18:26;98763.16;;;22.13;58.90
8318;BME280;4196;48.926;8.964;2023-06-10T06:21:13;98766.16;;;21.74;60.69
8318;BME280;4196;48.926;8.964;2023-06-10T06:24:00;98724.97;;;21.38;61.47
8318;BME280;4196;48.926;8.964;2023-06-10T06:26:46;98790.03;;;21.71;59.73
8318;BME280;4196;48.926;8.964;2023-06-10T06:29:33;98781.69;;;21.63;59.38
8318;BME280;4196;48.926;8.964;2023-06-10T06:32:20;98731.25;;;21.18;60.86
8318;BME280;4196;48.926;8.964;2023-06-10T06:35:09;98788.00;;;21.43;60.49
8318;BME280;4196;48.926;8.964;2023-06-10T06:37:56;98786.66;;;21.52;61.32
8318;BME280;4196;48.926;8.964;2023-06-10T06:40:46;98774.56;;;21.48;62.48
8318;BME280;4196;48.926;8.964;2023-06-10T06:43:32;98739.88;;;21.39;61.17
8318;BME280;4196;48.926;8.964;2023-06-10T06:46:28;98773.63;;;21.66;61.76
8318;BME280;4196;48.926;8.964;2023-06-10T06:49:15;98780.41;;;21.87;60.37
8318;BME280;4196;48.926;8.964;2023-06-10T06:52:02;98789.09;;;21.72;61.23
8318;BME280;4196;48.926;8.964;2023-06-10T06:54:48;98786.41;;;21.89;61.34
8318;BME280;4196;48.926;8.964;2023-06-10T06:57:36;98778.63;;;22.04;61.16
8318;BME280;4196;48.926;8.964;2023-06-10T07:00:22;98740.66;;;21.90;59.42
8318;BME280;4196;48.926;8.964;2023-06-10T07:03:09;98769.31;;;22.14;62.21
8318;BME280;4196;48.926;8.964;2023-06-10T07:05:55;98769.22;;;22.31;62.39
8318;BME280;4196;48.926;8.964;2023-06-10T07:08:42;98778.25;;;22.59;59.92
8318;BME280;4196;48.926;8.964;2023-06-10T07:11:28;98760.13;;;22.53;59.30
8318;BME280;4196;48.926;8.964;2023-06-10T07:14:15;98772.22;;;22.73;59.44
8318;BME280;4196;48.926;8.964;2023-06-10T07:17:01;98774.91;;;22.71;59.64
8318;BME280;4196;48.926;8.964;2023-06-10T07:19:48;98742.66;;;22.66;59.16
8318;BME280;4196;48.926;8.964;2023-06-10T07:22:35;98775.31;;;23.11;56.89
8318;BME280;4196;48.926;8.964;2023-06-10T07:25:22;98763.34;;;22.74;57.26
8318;BME280;4196;48.926;8.964;2023-06-10T07:28:08;98790.41;;;23.09;58.54
8318;BME280;4196;48.926;8.964;2023-06-10T07:30:55;98781.34;;;23.13;58.54
8318;BME280;4196;48.926;8.964;2023-06-10T07:33:41;98787.81;;;23.37;57.17
8318;BME280;4196;48.926;8.964;2023-06-10T07:36:29;98780.56;;;23.41;56.86
8318;BME280;4196;48.926;8.964;2023-06-10T07:39:15;98773.19;;;23.32;56.92
8318;BME280;4196;48.926;8.964;2023-06-10T07:42:02;98772.44;;;23.44;55.91
8318;BME280;4196;48.926;8.964;2023-06-10T07:44:49;98750.44;;;23.29;58.20
8318;BME280;4196;48.926;8.964;2023-06-10T07:47:35;98767.38;;;23.55;56.37
8318;BME280;4196;48.926;8.964;2023-06-10T07:50:22;98740.03;;;23.26;55.85
8318;BME280;4196;48.926;8.964;2023-06-10T07:53:08;98751.94;;;23.33;55.96
8318;BME280;4196;48.926;8.964;2023-06-10T07:55:55;98780.72;;;23.38;57.27
8318;BME280;4196;48.926;8.964;2023-06-10T07:58:41;98781.91;;;23.48;55.03
8318;BME280;4196;48.926;8.964;2023-06-10T08:01:27;98772.56;;;23.43;57.17
8318;BME280;4196;48.926;8.964;2023-06-10T08:04:16;98777.28;;;23.52;55.42
8318;BME280;4196;48.926;8.964;2023-06-10T08:07:02;98754.03;;;23.28;55.67
8318;BME280;4196;48.926;8.964;2023-06-10T08:09:49;98782.28;;;23.42;56.34
8318;BME280;4196;48.926;8.964;2023-06-10T08:12:36;98749.50;;;23.30;56.05
8318;BME280;4196;48.926;8.964;2023-06-10T08:15:22;98742.78;;;23.25;57.98
8318;BME280;4196;48.926;8.964;2023-06-10T08:18:09;98744.34;;;23.43;56.68
8318;BME280;4196;48.926;8.964;2023-06-10T08:20:56;98757.09;;;23.51;56.00
8318;BME280;4196;48.926;8.964;2023-06-10T08:23:42;98775.16;;;23.73;54.34
8318;BME280;4196;48.926;8.964;2023-06-10T08:26:30;98779.03;;;23.67;56.09
8318;BME280;4196;48.926;8.964;2023-06-10T08:29:16;98745.38;;;23.55;57.90
8318;BME280;4196;48.926;8.964;2023-06-10T08:32:03;98767.06;;;23.90;55.61
8318;BME280;4196;48.926;8.964;2023-06-10T08:34:50;98757.69;;;23.84;53.20
8318;BME280;4196;48.926;8.964;2023-06-10T08:37:36;98749.94;;;23.67;53.97
8318;BME280;4196;48.926;8.964;2023-06-10T08:40:23;98759.97;;;23.76;54.25
8318;BME280;4196;48.926;8.964;2023-06-10T08:43:17;98778.47;;;23.91;53.93
8318;BME280;4196;48.926;8.964;2023-06-10T08:46:09;98773.75;;;23.96;55.89
8318;BME280;4196;48.926;8.964;2023-06-10T08:49:00;98760.34;;;23.99;55.91
8318;BME280;4196;48.926;8.964;2023-06-10T08:51:50;98750.47;;;24.15;55.64
8318;BME280;4196;48.926;8.964;2023-06-10T08:54:38;98766.16;;;24.32;56.32
8318;BME280;4196;48.926;8.964;2023-06-10T08:57:25;98742.81;;;24.25;57.18
8318;BME280;4196;48.926;8.964;2023-06-10T09:00:13;98727.47;;;24.30;56.10
8318;BME280;4196;48.926;8.964;2023-06-10T09:03:00;98767.91;;;24.61;52.77
8318;BME280;4196;48.926;8.964;2023-06-10T09:05:51;98754.78;;;24.45;52.56
8318;BME280;4196;48.926;8.964;2023-06-10T09:08:37;98741.09;;;24.38;54.26
8318;BME280;4196;48.926;8.964;2023-06-10T09:11:25;98718.81;;;24.28;52.62
8318;BME280;4196;48.926;8.964;2023-06-10T09:14:11;98739.09;;;24.56;51.92
8318;BME280;4196;48.926;8.964;2023-06-10T09:17:03;98733.88;;;24.54;51.33
8318;BME280;4196;48.926;8.964;2023-06-10T09:19:52;98732.50;;;24.34;52.87
8318;BME280;4196;48.926;8.964;2023-06-10T09:22:41;98744.28;;;24.57;54.45
8318;BME280;4196;48.926;8.964;2023-06-10T09:25:36;98709.03;;;24.57;50.76
8318;BME280;4196;48.926;8.964;2023-06-10T09:28:23;98757.25;;;25.02;49.45
8318;BME280;4196;48.926;8.964;2023-06-10T09:31:11;98711.50;;;24.73;50.53
8318;BME280;4196;48.926;8.964;2023-06-10T09:34:12;98740.91;;;25.22;50.30
8318;BME280;4196;48.926;8.964;2023-06-10T09:36:58;98721.69;;;25.19;50.97
8318;BME280;4196;48.926;8.964;2023-06-10T09:40:01;98740.38;;;25.56;49.01
8318;BME280;4196;48.926;8.964;2023-06-10T09:42:53;98746.94;;;25.75;49.87
8318;BME280;4196;48.926;8.964;2023-06-10T09:45:41;98734.53;;;26.01;46.49
8318;BME280;4196;48.926;8.964;2023-06-10T09:48:29;98699.03;;;25.78;46.20
8318;BME280;4196;48.926;8.964;2023-06-10T09:51:16;98714.47;;;25.97;46.28
8318;BME280;4196;48.926;8.964;2023-06-10T09:54:05;98724.63;;;26.16;44.79
8318;BME280;4196;48.926;8.964;2023-06-10T09:56:51;98736.66;;;26.46;47.06
8318;BME280;4196;48.926;8.964;2023-06-10T09:59:38;98717.50;;;26.78;45.46
8318;BME280;4196;48.926;8.964;2023-06-10T10:02:25;98709.53;;;26.78;44.94
8318;BME280;4196;48.926;8.964;2023-06-10T10:05:13;98707.69;;;26.67;46.00
8318;BME280;4196;48.926;8.964;2023-06-10T10:08:02;98689.75;;;26.34;45.34
8318;BME280;4196;48.926;8.964;2023-06-10T10:10:48;98692.56;;;26.07;47.02
8318;BME280;4196;48.926;8.964;2023-06-10T10:13:35;98728.09;;;26.30;46.85
8318;BME280;4196;48.926;8.964;2023-06-10T10:16:48;98716.78;;;26.39;47.95
8318;BME280;4196;48.926;8.964;2023-06-10T10:19:53;98718.88;;;26.59;46.94
8318;BME280;4196;48.926;8.964;2023-06-10T10:22:41;98713.03;;;26.54;46.66
8318;BME280;4196;48.926;8.964;2023-06-10T10:25:35;98712.94;;;26.43;46.34
8318;BME280;4196;48.926;8.964;2023-06-10T10:28:24;98708.47;;;26.43;47.48
8318;BME280;4196;48.926;8.964;2023-06-10T10:31:18;98686.94;;;26.48;47.52
8318;BME280;4196;48.926;8.964;2023-06-10T10:34:07;98705.38;;;26.62;46.16
8318;BME280;4196;48.926;8.964;2023-06-10T10:36:55;98678.63;;;26.53;44.62
8318;BME280;4196;48.926;8.964;2023-06-10T10:39:42;98672.19;;;26.44;44.25
8318;BME280;4196;48.926;8.964;2023-06-10T10:42:30;98674.44;;;26.37;44.00
8318;BME280;4196;48.926;8.964;2023-06-10T10:45:17;98683.56;;;26.46;44.57
8318;BME280;4196;48.926;8.964;2023-06-10T10:48:07;98676.53;;;26.45;44.37
8318;BME280;4196;48.926;8.964;2023-06-10T10:50:57;98680.00;;;26.69;45.84
8318;BME280;4196;48.926;8.964;2023-06-10T10:53:44;98702.19;;;27.16;44.37
8318;BME280;4196;48.926;8.964;2023-06-10T10:57:09;98697.25;;;27.34;43.82
8318;BME280;4196;48.926;8.964;2023-06-10T10:59:58;98654.09;;;27.19;41.49
8318;BME280;4196;48.926;8.964;2023-06-10T11:02:51;98698.63;;;27.62;44.48
8318;BME280;4196;48.926;8.964;2023-06-10T11:05:48;98694.78;;;27.78;42.02
8318;BME280;4196;48.926;8.964;2023-06-10T11:11:28;98691.31;;;28.43;39.96
8318;BME280;4196;48.926;8.964;2023-06-10T11:14:26;98654.50;;;28.37;39.48
8318;BME280;4196;48.926;8.964;2023-06-10T11:17:21;98672.69;;;28.32;39.45
8318;BME280;4196;48.926;8.964;2023-06-10T11:20:08;98682.91;;;28.59;38.39
8318;BME280;4196;48.926;8.964;2023-06-10T11:22:59;98675.59;;;28.40;39.17
8318;BME280;4196;48.926;8.964;2023-06-10T11:25:46;98686.91;;;27.99;39.95
8318;BME280;4196;48.926;8.964;2023-06-10T11:28:33;98679.78;;;27.65;40.25
8318;BME280;4196;48.926;8.964;2023-06-10T11:31:24;98680.84;;;27.40;40.47
8318;BME280;4196;48.926;8.964;2023-06-10T11:34:12;98683.75;;;27.49;40.14
8318;BME280;4196;48.926;8.964;2023-06-10T11:36:59;98665.50;;;27.33;41.92
8318;BME280;4196;48.926;8.964;2023-06-10T11:39:46;98664.50;;;27.11;41.35
8318;BME280;4196;48.926;8.964;2023-06-10T11:42:33;98674.53;;;26.95;42.41
8318;BME280;4196;48.926;8.964;2023-06-10T11:45:19;98638.25;;;26.71;41.63
8318;BME280;4196;48.926;8.964;2023-06-10T11:48:05;98670.97;;;27.07;40.71
8318;BME280;4196;48.926;8.964;2023-06-10T11:50:52;98664.50;;;27.11;41.29
8318;BME280;4196;48.926;8.964;2023-06-10T11:53:38;98645.66;;;27.26;40.08
8318;BME280;4196;48.926;8.964;2023-06-10T11:56:27;98656.69;;;27.55;38.94
8318;BME280;4196;48.926;8.964;2023-06-10T11:59:14;98675.91;;;27.69;39.23
8318;BME280;4196;48.926;8.964;2023-06-10T12:02:00;98652.19;;;27.44;39.41
8318;BME280;4196;48.926;8.964;2023-06-10T12:04:47;98647.13;;;27.30;39.65
8318;BME280;4196;48.926;8.964;2023-06-10T12:07:34;98670.91;;;27.42;39.47
8318;BME280;4196;48.926;8.964;2023-06-10T12:10:20;98672.63;;;27.55;39.38
8318;BME280;4196;48.926;8.964;2023-06-10T12:13:13;98648.56;;;27.79;38.81
8318;BME280;4196;48.926;8.964;2023-06-10T12:16:07;98662.19;;;28.08;38.62
8318;BME280;4196;48.926;8.964;2023-06-10T12:19:01;98648.28;;;28.04;39.09
8318;BME280;4196;48.926;8.964;2023-06-10T12:21:48;98647.88;;;28.20;37.80
8318;BME280;4196;48.926;8.964;2023-06-10T12:24:44;98600.66;;;27.90;38.86
8318;BME280;4196;48.926;8.964;2023-06-10T12:27:31;98653.91;;;28.33;37.66
8318;BME280;4196;48.926;8.964;2023-06-10T12:30:19;98651.84;;;28.37;37.83
8318;BME280;4196;48.926;8.964;2023-06-10T12:33:16;98639.53;;;28.57;36.89
8318;BME280;4196;48.926;8.964;2023-06-10T12:36:03;98609.53;;;28.55;35.89
8318;BME280;4196;48.926;8.964;2023-06-10T12:38:50;98647.47;;;29.00;36.72
8318;BME280;4196;48.926;8.964;2023-06-10T12:41:38;98639.38;;;29.32;36.58
8318;BME280;4196;48.926;8.964;2023-06-10T12:44:38;98652.63;;;29.74;36.08
8318;BME280;4196;48.926;8.964;2023-06-10T12:47:35;98646.09;;;29.98;35.30
8318;BME280;4196;48.926;8.964;2023-06-10T12:50:22;98615.28;;;29.84;36.43
8318;BME280;4196;48.926;8.964;2023-06-10T12:53:09;98630.16;;;29.77;34.93
8318;BME280;4196;48.926;8.964;2023-06-10T12:55:57;98653.13;;;29.58;34.34
8318;BME280;4196;48.926;8.964;2023-06-10T12:58:44;98633.53;;;29.18;35.26
8318;BME280;4196;48.926;8.964;2023-06-10T13:01:32;98639.03;;;29.47;34.56
8318;BME280;4196;48.926;8.964;2023-06-10T13:04:20;98640.47;;;29.30;34.28
8318;BME280;4196;48.926;8.964;2023-06-10T13:07:07;98638.28;;;29.14;34.88
8318;BME280;4196;48.926;8.964;2023-06-10T13:09:54;98633.91;;;28.92;35.23
8318;BME280;4196;48.926;8.964;2023-06-10T13:12:42;98598.88;;;28.55;35.42
8318;BME280;4196;48.926;8.964;2023-06-10T13:15:33;98615.97;;;28.52;35.28
8318;BME280;4196;48.926;8.964;2023-06-10T13:18:28;98605.81;;;28.35;35.70
8318;BME280;4196;48.926;8.964;2023-06-10T13:21:15;98621.00;;;28.87;37.05
8318;BME280;4196;48.926;8.964;2023-06-10T13:24:02;98572.41;;;29.05;37.69
8318;BME280;4196;48.926;8.964;2023-06-10T13:26:49;98622.88;;;29.18;35.39
8318;BME280;4196;48.926;8.964;2023-06-10T13:29:36;98625.78;;;28.94;35.22
8318;BME280;4196;48.926;8.964;2023-06-10T13:32:22;98625.13;;;28.59;34.80
8318;BME280;4196;48.926;8.964;2023-06-10T13:35:09;98599.38;;;28.16;35.45
8318;BME280;4196;48.926;8.964;2023-06-10T13:37:56;98620.09;;;28.45;36.08
8318;BME280;4196;48.926;8.964;2023-06-10T13:40:43;98604.81;;;28.58;35.31
8318;BME280;4196;48.926;8.964;2023-06-10T13:43:30;98590.50;;;28.80;35.72
8318;BME280;4196;48.926;8.964;2023-06-10T13:46:16;98613.56;;;29.12;33.42
8318;BME280;4196;48.926;8.964;2023-06-10T13:49:03;98603.84;;;28.80;32.96
8318;BME280;4196;48.926;8.964;2023-06-10T13:51:49;98612.41;;;28.84;33.26
8318;BME280;4196;48.926;8.964;2023-06-10T13:54:36;98607.97;;;28.94;33.99
8318;BME280;4196;48.926;8.964;2023-06-10T13:57:22;98604.72;;;29.11;34.23
8318;BME280;4196;48.926;8.964;2023-06-10T14:00:09;98572.75;;;29.11;33.76
8318;BME280;4196;48.926;8.964;2023-06-10T14:02:56;98598.66;;;29.30;32.68
8318;BME280;4196;48.926;8.964;2023-06-10T14:05:43;98602.81;;;29.23;33.11
8318;BME280;4196;48.926;8.964;2023-06-10T14:08:30;98572.47;;;29.15;33.33
8318;BME280;4196;48.926;8.964;2023-06-10T14:11:16;98588.75;;;29.42;33.27
8318;BME280;4196;48.926;8.964;2023-06-10T14:14:03;98587.63;;;29.45;34.13
8318;BME280;4196;48.926;8.964;2023-06-10T14:16:49;98580.34;;;29.47;33.76
8318;BME280;4196;48.926;8.964;2023-06-10T14:19:36;98583.50;;;29.62;33.42
8318;BME280;4196;48.926;8.964;2023-06-10T14:22:23;98594.63;;;29.05;34.46
8318;BME280;4196;48.926;8.964;2023-06-10T14:25:09;98582.50;;;28.80;35.70
8318;BME280;4196;48.926;8.964;2023-06-10T14:27:58;98597.41;;;28.62;35.11
8318;BME280;4196;48.926;8.964;2023-06-10T14:30:44;98595.22;;;28.24;35.43
8318;BME280;4196;48.926;8.964;2023-06-10T14:33:31;98578.50;;;28.01;35.62
8318;BME280;4196;48.926;8.964;2023-06-10T14:36:18;98584.94;;;27.64;36.86
8318;BME280;4196;48.926;8.964;2023-06-10T14:39:05;98571.44;;;27.45;37.51
8318;BME280;4196;48.926;8.964;2023-06-10T14:41:52;98582.78;;;27.81;36.97
8318;BME280;4196;48.926;8.964;2023-06-10T14:44:41;98569.47;;;27.92;35.91
8318;BME280;4196;48.926;8.964;2023-06-10T14:47:27;98583.66;;;28.13;35.69
8318;BME280;4196;48.926;8.964;2023-06-10T14:50:14;98545.72;;;28.00;35.70
8318;BME280;4196;48.926;8.964;2023-06-10T14:53:01;98583.81;;;28.44;35.91
8318;BME280;4196;48.926;8.964;2023-06-10T14:55:48;98568.94;;;28.62;35.60
8318;BME280;4196;48.926;8.964;2023-06-10T14:58:34;98574.91;;;28.76;35.14
8318;BME280;4196;48.926;8.964;2023-06-10T15:01:21;98534.22;;;28.32;35.03
8318;BME280;4196;48.926;8.964;2023-06-10T15:04:07;98573.00;;;28.46;35.79
8318;BME280;4196;48.926;8.964;2023-06-10T15:06:54;98560.88;;;28.53;35.38
8318;BME280;4196;48.926;8.964;2023-06-10T15:09:41;98553.19;;;28.59;34.68
8318;BME280;4196;48.926;8.964;2023-06-10T15:12:28;98570.16;;;28.58;34.59
8318;BME280;4196;48.926;8.964;2023-06-10T15:15:15;98571.06;;;28.48;34.49